createdAt,value
2023-05-02T00:00:31.645Z,2.60
2023-05-02T00:02:58.712Z,2.60
2023-05-02T00:05:26.252Z,2.40
2023-05-02T00:07:52.990Z,2.60
2023-05-02T00:10:19.657Z,2.70
2023-05-02T00:12:46.237Z,2.40
2023-05-02T00:15:12.780Z,2.10
2023-05-02T00:17:42.793Z,2.40
2023-05-02T00:20:11.159Z,2.70
2023-05-02T00:22:38.105Z,2.70
2023-05-02T00:25:05.601Z,2.50
2023-05-02T00:27:32.057Z,2.90
2023-05-02T00:29:58.988Z,2.20
2023-05-02T00:32:26.058Z,2.80
2023-05-02T00:34:53.064Z,2.70
2023-05-02T00:37:19.727Z,3.10
2023-05-02T00:39:46.251Z,2.60
2023-05-02T00:42:12.717Z,2.70
2023-05-02T00:44:39.251Z,2.80
2023-05-02T00:47:05.749Z,2.80
2023-05-02T00:49:32.233Z,2.90
2023-05-02T00:51:58.842Z,3.00
2023-05-02T00:54:25.389Z,3.20
2023-05-02T00:56:51.952Z,3.10
2023-05-02T00:59:18.565Z,3.20
2023-05-02T01:02:14.198Z,3.00
2023-05-02T01:05:07.040Z,2.80
2023-05-02T01:08:03.255Z,2.90
2023-05-02T01:10:29.686Z,3.20
2023-05-02T01:13:07.707Z,2.90
2023-05-02T01:15:36.898Z,3.10
2023-05-02T01:18:05.078Z,2.80
2023-05-02T01:20:35.712Z,3.30
2023-05-02T01:23:09.356Z,3.40
2023-05-02T01:26:06.043Z,2.70
2023-05-02T01:28:57.277Z,3.10
2023-05-02T01:31:26.390Z,2.90
2023-05-02T01:33:54.627Z,3.10
2023-05-02T01:36:22.981Z,3.30
2023-05-02T01:38:51.466Z,3.50
2023-05-02T01:41:19.813Z,3.60
2023-05-02T01:43:47.656Z,3.50
2023-05-02T01:46:14.837Z,3.10
2023-05-02T01:48:46.368Z,3.20
2023-05-02T01:51:15.850Z,3.00
2023-05-02T01:53:44.389Z,3.50
2023-05-02T01:56:11.066Z,3.40
2023-05-02T01:58:39.713Z,3.00
2023-05-02T02:01:09.184Z,3.20
2023-05-02T02:03:35.748Z,3.40
2023-05-02T02:06:03.186Z,2.90
2023-05-02T02:08:29.834Z,3.10
2023-05-02T02:11:04.281Z,3.30
2023-05-02T02:13:37.353Z,3.30
2023-05-02T02:16:05.846Z,3.00
2023-05-02T02:18:37.674Z,2.90
2023-05-02T02:21:07.766Z,3.90
2023-05-02T02:23:36.514Z,3.60
2023-05-02T02:26:05.002Z,4.00
2023-05-02T02:28:31.946Z,3.00
2023-05-02T02:30:58.480Z,3.60
2023-05-02T02:33:30.484Z,3.70
2023-05-02T02:36:19.136Z,3.60
2023-05-02T02:38:50.607Z,3.80
2023-05-02T02:41:23.834Z,3.80
2023-05-02T02:43:59.145Z,3.40
2023-05-02T02:46:42.751Z,3.90
2023-05-02T02:49:31.809Z,3.50
2023-05-02T02:52:07.242Z,3.10
2023-05-02T02:54:45.633Z,3.50
2023-05-02T02:57:51.674Z,3.60
2023-05-02T03:00:25.622Z,3.10
2023-05-02T03:02:52.951Z,3.50
2023-05-02T03:05:21.111Z,3.30
2023-05-02T03:07:48.061Z,3.60
2023-05-02T03:10:14.522Z,4.20
2023-05-02T03:12:40.980Z,3.90
2023-05-02T03:15:24.887Z,3.50
2023-05-02T03:17:51.373Z,3.50
2023-05-02T03:20:18.058Z,4.10
2023-05-02T03:22:44.578Z,3.90
2023-05-02T03:25:11.270Z,3.70
2023-05-02T03:27:37.801Z,4.00
2023-05-02T03:30:05.089Z,4.00
2023-05-02T03:32:31.550Z,3.60
2023-05-02T03:34:58.021Z,4.10
2023-05-02T03:37:24.973Z,3.60
2023-05-02T03:39:51.482Z,4.10
2023-05-02T03:42:17.973Z,3.50
2023-05-02T03:44:44.423Z,4.00
2023-05-02T03:47:11.068Z,3.80
2023-05-02T03:49:37.949Z,4.10
2023-05-02T03:52:04.451Z,4.20
2023-05-02T03:54:34.149Z,4.50
2023-05-02T03:57:00.633Z,4.20
2023-05-02T03:59:27.111Z,4.30
2023-05-02T04:01:53.603Z,3.90
2023-05-02T04:04:20.143Z,4.40
2023-05-02T04:06:46.733Z,4.30
2023-05-02T04:09:13.429Z,4.30
2023-05-02T04:11:39.903Z,3.80
2023-05-02T04:14:06.393Z,3.80
2023-05-02T04:16:32.949Z,4.50
2023-05-02T04:18:59.553Z,3.60
2023-05-02T04:21:26.024Z,3.70
2023-05-02T04:23:52.561Z,4.00
2023-05-02T04:26:19.030Z,3.80
2023-05-02T04:28:45.490Z,4.10
2023-05-02T04:31:12.131Z,3.90
2023-05-02T04:33:38.608Z,3.90
2023-05-02T04:36:05.498Z,4.30
2023-05-02T04:38:32.017Z,4.00
2023-05-02T04:40:58.486Z,4.20
2023-05-02T04:43:25.009Z,4.60
2023-05-02T04:45:51.622Z,4.00
2023-05-02T04:48:18.115Z,4.10
2023-05-02T04:50:45.591Z,4.30
2023-05-02T04:53:12.067Z,4.60
2023-05-02T04:55:38.573Z,4.70
2023-05-02T04:58:05.066Z,4.40
2023-05-02T05:00:31.529Z,4.50
2023-05-02T05:02:59.421Z,4.90
2023-05-02T05:05:28.016Z,4.70
2023-05-02T05:07:54.587Z,4.30
2023-05-02T05:10:21.098Z,4.90
2023-05-02T05:12:47.551Z,4.80
2023-05-02T05:15:14.032Z,4.60
2023-05-02T05:17:40.543Z,5.00
2023-05-02T05:20:09.511Z,4.60
2023-05-02T05:22:42.198Z,5.00
2023-05-02T05:25:09.778Z,4.70
2023-05-02T05:27:36.798Z,5.10
2023-05-02T05:30:06.739Z,5.20
2023-05-02T05:32:33.857Z,5.60
2023-05-02T05:35:00.466Z,5.20
2023-05-02T05:37:27.075Z,5.30
2023-05-02T05:39:53.550Z,5.20
2023-05-02T05:42:20.094Z,4.70
2023-05-02T05:44:46.539Z,5.20
2023-05-02T05:47:13.233Z,5.50
2023-05-02T05:49:39.727Z,4.50
2023-05-02T05:52:06.273Z,5.00
2023-05-02T05:54:32.734Z,5.40
2023-05-02T05:56:59.218Z,4.40
2023-05-02T05:59:25.657Z,5.00
2023-05-02T06:01:52.140Z,4.60
2023-05-02T06:04:18.685Z,4.30
2023-05-02T06:06:45.246Z,4.00
2023-05-02T06:09:11.778Z,4.50
2023-05-02T06:11:38.298Z,4.40
2023-05-02T06:14:04.795Z,4.40
2023-05-02T06:16:31.325Z,3.80
2023-05-02T06:18:57.879Z,4.20
2023-05-02T06:21:24.347Z,4.10
2023-05-02T06:23:50.794Z,4.30
2023-05-02T06:26:17.254Z,4.30
2023-05-02T06:28:44.000Z,4.00
2023-05-02T06:31:10.654Z,4.00
2023-05-02T06:33:37.269Z,3.90
2023-05-02T06:36:04.185Z,4.50
2023-05-02T06:38:30.675Z,4.40
2023-05-02T06:40:57.160Z,3.90
2023-05-02T06:43:23.636Z,3.60
2023-05-02T06:45:53.357Z,4.00
2023-05-02T06:48:20.165Z,3.80
2023-05-02T06:50:46.838Z,3.90
2023-05-02T06:53:13.317Z,3.70
2023-05-02T06:55:39.922Z,3.80
2023-05-02T06:58:06.513Z,3.80
2023-05-02T07:00:33.535Z,3.90
2023-05-02T07:03:00.104Z,3.80
2023-05-02T07:05:26.830Z,3.90
2023-05-02T07:07:53.294Z,4.50
2023-05-02T07:10:19.758Z,5.00
2023-05-02T07:12:46.276Z,4.00
2023-05-02T07:15:12.871Z,3.80
2023-05-02T07:17:40.168Z,3.90
2023-05-02T07:20:07.788Z,4.10
2023-05-02T07:22:34.257Z,4.20
2023-05-02T07:25:02.955Z,3.80
2023-05-02T07:27:29.604Z,4.10
2023-05-02T07:29:56.064Z,4.20
2023-05-02T07:32:22.802Z,3.50
2023-05-02T07:34:49.305Z,3.80
2023-05-02T07:37:15.763Z,3.90
2023-05-02T07:39:42.248Z,4.10
2023-05-02T07:42:08.754Z,4.20
2023-05-02T07:44:35.252Z,4.00
2023-05-02T07:47:01.728Z,4.10
2023-05-02T07:49:28.433Z,4.10
2023-05-02T07:51:54.891Z,4.20
2023-05-02T07:54:22.429Z,3.90
2023-05-02T07:56:48.946Z,3.90
2023-05-02T07:59:15.513Z,3.80
2023-05-02T08:01:42.695Z,3.70
2023-05-02T08:04:09.395Z,4.30
2023-05-02T08:06:36.043Z,3.70
2023-05-02T08:09:02.707Z,3.70
2023-05-02T08:11:29.222Z,4.00
2023-05-02T08:13:55.747Z,3.80
2023-05-02T08:16:22.468Z,3.20
2023-05-02T08:18:49.020Z,3.70
2023-05-02T08:21:15.523Z,4.10
2023-05-02T08:23:42.128Z,3.30
2023-05-02T08:26:08.640Z,3.60
2023-05-02T08:28:35.104Z,3.50
2023-05-02T08:31:01.661Z,3.30
2023-05-02T08:33:28.141Z,4.00
2023-05-02T08:35:54.713Z,3.60
2023-05-02T08:38:21.519Z,3.70
2023-05-02T08:40:48.366Z,3.40
2023-05-02T08:43:16.694Z,3.50
2023-05-02T08:45:44.492Z,4.10
2023-05-02T08:48:13.287Z,3.90
2023-05-02T08:50:41.909Z,3.70
2023-05-02T08:53:09.934Z,3.70
2023-05-02T08:55:39.046Z,3.80
2023-05-02T08:58:06.371Z,3.50
2023-05-02T09:00:38.340Z,3.40
2023-05-02T09:03:16.919Z,3.20
2023-05-02T09:05:43.472Z,3.70
2023-05-02T09:08:10.103Z,2.80
2023-05-02T09:10:36.705Z,3.30
2023-05-02T09:13:39.450Z,3.30
2023-05-02T09:16:11.582Z,3.70
2023-05-02T09:18:40.175Z,3.70
2023-05-02T09:21:12.806Z,3.40
2023-05-02T09:23:47.773Z,3.20
2023-05-02T09:26:28.840Z,3.40
2023-05-02T09:28:56.539Z,3.30
2023-05-02T09:31:49.593Z,3.00
2023-05-02T09:34:18.293Z,3.30
2023-05-02T09:36:50.304Z,3.20
2023-05-02T09:39:19.101Z,3.10
2023-05-02T09:41:47.105Z,3.60
2023-05-02T09:44:18.326Z,3.10
2023-05-02T09:49:16.110Z,3.00
2023-05-02T09:51:42.649Z,3.00
2023-05-02T09:54:09.189Z,3.40
2023-05-02T09:56:57.856Z,3.50
2023-05-02T09:59:24.880Z,3.00
2023-05-02T10:02:09.510Z,3.30
2023-05-02T10:04:36.493Z,3.30
2023-05-02T10:07:03.546Z,3.60
2023-05-02T10:09:30.962Z,3.20
2023-05-02T10:11:58.514Z,3.40
2023-05-02T10:14:29.167Z,3.30
2023-05-02T10:17:05.530Z,3.30
2023-05-02T10:19:53.070Z,3.10
2023-05-02T10:22:20.706Z,4.10
2023-05-02T10:24:49.968Z,3.50
2023-05-02T10:27:16.934Z,3.30
2023-05-02T10:29:44.409Z,3.40
2023-05-02T10:32:11.333Z,3.80
2023-05-02T10:34:39.115Z,3.60
2023-05-02T10:37:05.642Z,3.80
2023-05-02T10:39:32.610Z,3.40
2023-05-02T10:42:00.792Z,3.30
2023-05-02T10:44:36.757Z,3.50
2023-05-02T10:47:22.571Z,3.20
2023-05-02T10:49:53.706Z,3.30
2023-05-02T10:52:38.360Z,3.70
2023-05-02T10:55:14.220Z,3.20
2023-05-02T10:58:18.613Z,2.70
2023-05-02T11:00:45.159Z,3.00
2023-05-02T11:03:11.840Z,2.80
2023-05-02T11:06:05.204Z,3.00
2023-05-02T11:08:31.833Z,3.20
2023-05-02T11:11:36.648Z,2.90
2023-05-02T11:14:03.191Z,3.20
2023-05-02T11:16:58.877Z,3.00
2023-05-02T11:19:26.196Z,2.80
2023-05-02T11:21:52.677Z,3.10
2023-05-02T11:24:39.253Z,3.10
2023-05-02T11:27:30.681Z,2.90
2023-05-02T11:29:59.105Z,2.90
2023-05-02T11:32:45.629Z,3.40
2023-05-02T11:35:19.098Z,3.20
2023-05-02T11:37:55.036Z,3.50
2023-05-02T11:40:21.745Z,3.70
2023-05-02T11:42:48.289Z,3.40
2023-05-02T11:45:14.990Z,3.10
2023-05-02T11:47:42.862Z,3.50
2023-05-02T11:50:09.952Z,3.20
2023-05-02T11:52:41.271Z,2.80
2023-05-02T11:55:11.824Z,3.20
2023-05-02T11:57:39.408Z,2.70
2023-05-02T12:00:07.193Z,2.80
2023-05-02T12:02:47.804Z,2.80
2023-05-02T12:05:15.316Z,3.00
2023-05-02T12:07:46.066Z,2.80
2023-05-02T12:10:13.575Z,3.10
2023-05-02T12:12:41.370Z,2.80
2023-05-02T12:15:09.913Z,3.80
2023-05-02T12:17:43.418Z,2.70
2023-05-02T12:20:11.356Z,3.70
2023-05-02T12:22:38.114Z,3.10
2023-05-02T12:25:05.992Z,4.20
2023-05-02T12:27:32.623Z,3.00
2023-05-02T12:29:59.571Z,3.10
2023-05-02T12:32:31.081Z,3.00
2023-05-02T12:34:58.819Z,3.00
2023-05-02T12:37:27.139Z,2.60
2023-05-02T12:39:54.765Z,2.60
2023-05-02T12:42:23.371Z,3.40
2023-05-02T12:44:51.431Z,3.00
2023-05-02T12:47:19.409Z,3.20
2023-05-02T12:49:48.886Z,2.70
2023-05-02T12:52:15.388Z,2.80
2023-05-02T12:54:41.919Z,3.10
2023-05-02T12:57:08.695Z,3.20
2023-05-02T12:59:35.314Z,2.90
2023-05-02T13:02:01.775Z,3.10
2023-05-02T13:04:40.125Z,3.20
2023-05-02T13:07:07.475Z,2.90
2023-05-02T13:09:33.926Z,2.90
2023-05-02T13:12:00.397Z,3.00
2023-05-02T13:14:26.845Z,3.10
2023-05-02T13:16:53.627Z,2.80
2023-05-02T13:19:20.634Z,3.30
2023-05-02T13:21:47.562Z,4.20
2023-05-02T13:24:14.764Z,3.30
2023-05-02T13:26:41.317Z,3.00
2023-05-02T13:29:07.805Z,3.40
2023-05-02T13:31:34.419Z,3.10
2023-05-02T13:34:01.058Z,3.50
2023-05-02T13:36:27.519Z,3.30
2023-05-02T13:38:54.127Z,3.50
2023-05-02T13:41:20.616Z,3.20
2023-05-02T13:43:47.123Z,3.20
2023-05-02T13:46:14.669Z,3.30
2023-05-02T13:48:41.178Z,3.00
2023-05-02T13:51:07.679Z,3.10
2023-05-02T13:53:34.248Z,2.90
2023-05-02T13:56:00.732Z,3.90
2023-05-02T13:58:27.218Z,3.10
2023-05-02T14:00:53.719Z,3.20
2023-05-02T14:03:20.303Z,3.30
2023-05-02T14:05:46.908Z,2.90
2023-05-02T14:08:13.362Z,3.00
2023-05-02T14:10:39.832Z,2.90
2023-05-02T14:13:06.327Z,3.20
2023-05-02T14:15:32.907Z,3.20
2023-05-02T14:17:59.395Z,3.30
2023-05-02T14:20:25.904Z,3.20
2023-05-02T14:22:52.390Z,3.20
2023-05-02T14:25:18.865Z,3.20
2023-05-02T14:27:46.327Z,3.40
2023-05-02T14:30:13.046Z,4.00
2023-05-02T14:32:39.677Z,3.30
2023-05-02T14:35:06.627Z,3.30
2023-05-02T14:37:33.259Z,3.40
2023-05-02T14:39:59.988Z,3.40
2023-05-02T14:42:26.608Z,3.40
2023-05-02T14:44:53.083Z,3.00
2023-05-02T14:47:19.667Z,3.20
2023-05-02T14:49:46.249Z,3.30
2023-05-02T14:52:12.749Z,3.20
2023-05-02T14:54:39.234Z,3.10
2023-05-02T14:57:05.736Z,3.50
2023-05-02T14:59:32.297Z,3.50
2023-05-02T15:01:59.560Z,3.00
2023-05-02T15:04:26.652Z,3.10
2023-05-02T15:06:53.839Z,3.20
2023-05-02T15:09:20.365Z,3.50
2023-05-02T15:11:46.841Z,3.20
2023-05-02T15:14:13.272Z,3.10
2023-05-02T15:16:39.884Z,3.20
2023-05-02T15:19:09.941Z,3.20
2023-05-02T15:21:37.480Z,3.30
2023-05-02T15:24:04.582Z,3.20
2023-05-02T15:26:31.605Z,3.60
2023-05-02T15:28:58.457Z,3.30
2023-05-02T15:31:24.980Z,3.60
2023-05-02T15:33:51.691Z,3.50
2023-05-02T15:36:19.720Z,5.30
2023-05-02T15:38:46.407Z,5.30
2023-05-02T15:41:12.922Z,4.00
2023-05-02T15:43:39.387Z,4.60
2023-05-02T15:46:06.104Z,4.80
2023-05-02T15:48:33.196Z,3.20
2023-05-02T15:50:59.763Z,3.40
2023-05-02T15:53:26.259Z,3.50
2023-05-02T15:55:57.495Z,3.20
2023-05-02T15:58:27.863Z,3.10
2023-05-02T16:00:54.448Z,3.90
2023-05-02T16:03:21.032Z,3.20
2023-05-02T16:05:47.597Z,3.30
2023-05-02T16:08:14.221Z,3.50
2023-05-02T16:10:40.707Z,3.00
2023-05-02T16:13:07.252Z,3.00
2023-05-02T16:15:33.758Z,3.50
2023-05-02T16:18:00.320Z,3.40
2023-05-02T16:20:26.915Z,3.30
2023-05-02T16:22:53.430Z,3.30
2023-05-02T16:25:20.021Z,3.60
2023-05-02T16:27:46.879Z,3.40
2023-05-02T16:30:13.731Z,3.10
2023-05-02T16:32:40.192Z,3.00
2023-05-02T16:35:07.301Z,3.50
2023-05-02T16:37:34.696Z,3.00
2023-05-02T16:40:01.733Z,4.00
2023-05-02T16:42:28.562Z,3.50
2023-05-02T16:44:56.328Z,3.50
2023-05-02T16:47:23.072Z,3.60
2023-05-02T16:49:56.636Z,3.30
2023-05-02T16:52:23.920Z,3.40
2023-05-02T16:54:50.746Z,3.20
2023-05-02T16:57:18.860Z,3.30
2023-05-02T16:59:49.648Z,3.40
2023-05-02T17:02:16.891Z,3.20
2023-05-02T17:04:43.758Z,3.60
2023-05-02T17:07:10.389Z,4.00
2023-05-02T17:09:37.548Z,4.20
2023-05-02T17:12:05.233Z,4.50
2023-05-02T17:14:31.935Z,4.20
2023-05-02T17:16:58.845Z,5.80
2023-05-02T17:19:25.509Z,5.70
2023-05-02T17:21:55.224Z,5.50
2023-05-02T17:24:21.715Z,4.80
2023-05-02T17:26:48.752Z,4.70
2023-05-02T17:29:15.279Z,4.50
2023-05-02T17:31:41.803Z,4.40
2023-05-02T17:34:08.405Z,4.40
2023-05-02T17:36:34.935Z,4.20
2023-05-02T17:39:01.474Z,5.10
2023-05-02T17:41:28.096Z,4.20
2023-05-02T17:43:54.554Z,4.30
2023-05-02T17:46:21.192Z,4.80
2023-05-02T17:48:47.771Z,4.50
2023-05-02T17:51:14.341Z,4.60
2023-05-02T17:53:40.839Z,4.50
2023-05-02T17:56:07.329Z,4.20
2023-05-02T17:58:33.762Z,4.00
2023-05-02T18:01:10.473Z,4.60
2023-05-02T18:03:38.042Z,4.80
2023-05-02T18:06:04.949Z,4.20
2023-05-02T18:08:31.463Z,6.20
2023-05-02T18:10:58.638Z,4.70
2023-05-02T18:13:26.636Z,4.70
2023-05-02T18:16:03.093Z,5.00
2023-05-02T18:18:29.599Z,4.70
2023-05-02T18:20:56.078Z,4.60
2023-05-02T18:23:22.566Z,4.40
2023-05-02T18:25:52.131Z,5.00
2023-05-02T18:28:18.632Z,4.80
2023-05-02T18:30:45.137Z,4.90
2023-05-02T18:33:13.919Z,5.10
2023-05-02T18:35:48.565Z,5.20
2023-05-02T18:38:16.021Z,4.90
2023-05-02T18:40:43.053Z,5.50
2023-05-02T18:43:09.619Z,4.80
2023-05-02T18:45:36.102Z,6.10
2023-05-02T18:48:07.778Z,5.40
2023-05-02T18:50:34.354Z,4.80
2023-05-02T18:53:00.907Z,5.10
2023-05-02T18:55:27.353Z,4.40
2023-05-02T18:57:53.951Z,5.00
2023-05-02T19:00:22.936Z,5.20
2023-05-02T19:02:52.425Z,5.50
2023-05-02T19:05:19.324Z,4.60
2023-05-02T19:07:45.910Z,4.30
2023-05-02T19:10:14.548Z,4.90
2023-05-02T19:12:41.943Z,5.30
2023-05-02T19:15:09.408Z,4.70
2023-05-02T19:17:35.932Z,4.70
2023-05-02T19:20:02.449Z,5.00
2023-05-02T19:22:28.959Z,5.10
2023-05-02T19:24:55.910Z,5.20
2023-05-02T19:27:25.459Z,5.30
2023-05-02T19:29:55.221Z,4.50
2023-05-02T19:32:24.633Z,4.70
2023-05-02T19:34:53.770Z,5.00
2023-05-02T19:37:20.336Z,5.50
2023-05-02T19:39:46.805Z,5.20
2023-05-02T19:42:13.619Z,5.40
2023-05-02T19:44:40.092Z,4.90
2023-05-02T19:47:06.600Z,4.80
2023-05-02T19:49:33.219Z,5.30
2023-05-02T19:51:59.714Z,5.30
2023-05-02T19:54:26.497Z,5.20
2023-05-02T19:56:53.009Z,5.00
2023-05-02T19:59:19.693Z,4.80
2023-05-02T20:01:46.220Z,4.80
2023-05-02T20:04:12.817Z,5.20
2023-05-02T20:06:39.418Z,4.90
2023-05-02T20:09:05.952Z,5.30
2023-05-02T20:11:32.421Z,5.40
2023-05-02T20:13:59.085Z,5.40
2023-05-02T20:16:25.604Z,5.80
2023-05-02T20:18:52.552Z,5.80
2023-05-02T20:21:19.240Z,6.50
2023-05-02T20:23:45.716Z,6.20
2023-05-02T20:26:12.182Z,6.10
2023-05-02T20:28:38.626Z,6.10
2023-05-02T20:31:05.219Z,6.10
2023-05-02T20:33:43.787Z,5.60
2023-05-02T20:36:12.171Z,6.20
2023-05-02T20:38:38.628Z,6.30
2023-05-02T20:41:05.664Z,7.00
2023-05-02T20:43:32.125Z,6.50
2023-05-02T20:45:58.649Z,6.60
2023-05-02T20:48:25.174Z,5.90
2023-05-02T20:50:55.002Z,6.60
2023-05-02T20:53:23.728Z,6.60
2023-05-02T20:55:50.639Z,7.30
2023-05-02T20:58:17.135Z,7.60
2023-05-02T21:00:43.673Z,6.30
2023-05-02T21:03:10.337Z,6.90
2023-05-02T21:05:36.854Z,7.10
2023-05-02T21:08:03.377Z,6.80
2023-05-02T21:10:30.674Z,7.10
2023-05-02T21:12:57.186Z,7.30
2023-05-02T21:15:23.639Z,6.90
2023-05-02T21:17:50.191Z,6.90
2023-05-02T21:20:16.696Z,7.30
2023-05-02T21:22:43.206Z,7.70
2023-05-02T21:25:10.041Z,6.10
2023-05-02T21:27:36.546Z,6.40
2023-05-02T21:30:03.327Z,6.60
2023-05-02T21:32:30.082Z,5.10
2023-05-02T21:34:56.560Z,6.80
2023-05-02T21:37:23.005Z,6.80
2023-05-02T21:39:49.480Z,6.90
2023-05-02T21:42:15.980Z,6.10
2023-05-02T21:44:42.539Z,6.10
2023-05-02T21:47:09.216Z,6.20
2023-05-02T21:49:35.793Z,6.50
2023-05-02T21:52:02.289Z,6.30
2023-05-02T21:54:28.834Z,6.10
2023-05-02T21:56:55.304Z,6.60
2023-05-02T21:59:21.827Z,6.00
2023-05-02T22:01:48.384Z,6.00
2023-05-02T22:04:14.920Z,5.60
2023-05-02T22:06:41.423Z,6.30
2023-05-02T22:09:07.993Z,6.10
2023-05-02T22:11:34.520Z,5.60
2023-05-02T22:14:00.995Z,6.10
2023-05-02T22:16:27.527Z,6.30
2023-05-02T22:18:54.037Z,5.90
2023-05-02T22:21:20.776Z,6.50
2023-05-02T22:23:47.227Z,5.60
2023-05-02T22:26:13.741Z,6.10
2023-05-02T22:28:40.259Z,6.40
2023-05-02T22:31:06.833Z,6.40
2023-05-02T22:33:33.322Z,6.20
2023-05-02T22:35:59.806Z,6.10
2023-05-02T22:38:26.295Z,6.10
2023-05-02T22:40:52.733Z,6.40
2023-05-02T22:43:19.281Z,7.80
2023-05-02T22:45:45.752Z,6.80
2023-05-02T22:48:12.258Z,6.30
2023-05-02T22:50:38.761Z,7.30
2023-05-02T22:53:05.192Z,7.30
2023-05-02T22:55:31.677Z,7.20
2023-05-02T22:57:58.180Z,7.30
2023-05-02T23:00:24.823Z,6.80
2023-05-02T23:02:51.398Z,7.30
2023-05-02T23:05:17.976Z,6.90
2023-05-02T23:07:44.414Z,6.90
2023-05-02T23:10:10.956Z,5.00
2023-05-02T23:12:37.505Z,6.10
2023-05-02T23:15:04.504Z,5.50
2023-05-02T23:17:31.013Z,6.30
2023-05-02T23:19:57.650Z,5.90
2023-05-02T23:22:24.276Z,6.20
2023-05-02T23:24:51.037Z,5.90
2023-05-02T23:27:17.565Z,6.40
2023-05-02T23:29:44.012Z,6.20
2023-05-02T23:32:10.532Z,6.20
2023-05-02T23:34:37.698Z,6.40
2023-05-02T23:37:04.399Z,6.30
2023-05-02T23:39:30.892Z,6.80
2023-05-02T23:41:57.376Z,6.30
2023-05-02T23:44:23.876Z,6.50
2023-05-02T23:46:50.497Z,6.50
2023-05-02T23:49:16.999Z,6.70
2023-05-02T23:51:43.493Z,6.60
2023-05-02T23:54:09.987Z,5.30
2023-05-02T23:56:36.481Z,6.40
2023-05-02T23:59:02.973Z,6.80
